createdAt,value
2023-02-28T00:00:40.830Z,80.27
2023-02-28T00:03:13.125Z,80.73
2023-02-28T00:05:42.896Z,81.54
2023-02-28T00:08:14.216Z,81.98
2023-02-28T00:10:43.929Z,82.59
2023-02-28T00:13:14.327Z,82.40
2023-02-28T00:15:44.028Z,81.71
2023-02-28T00:18:16.283Z,81.80
2023-02-28T00:20:46.012Z,82.87
2023-02-28T00:23:15.664Z,82.58
2023-02-28T00:25:45.406Z,82.53
2023-02-28T00:28:15.076Z,83.07
2023-02-28T00:30:44.739Z,82.99
2023-02-28T00:33:17.077Z,82.22
2023-02-28T00:35:47.519Z,83.31
2023-02-28T00:38:17.577Z,83.51
2023-02-28T00:40:47.734Z,84.35
2023-02-28T00:43:17.417Z,84.58
2023-02-28T00:45:48.280Z,84.56
2023-02-28T00:48:20.587Z,85.78
2023-02-28T00:50:52.340Z,85.65
2023-02-28T00:53:22.006Z,85.71
2023-02-28T00:55:52.595Z,85.70
2023-02-28T00:58:22.313Z,85.63
2023-02-28T01:00:52.369Z,84.56
2023-02-28T01:03:26.203Z,83.59
2023-02-28T01:05:56.974Z,83.40
2023-02-28T01:08:27.126Z,83.31
2023-02-28T01:10:56.970Z,83.12
2023-02-28T01:13:27.289Z,83.75
2023-02-28T01:15:59.359Z,83.04
2023-02-28T01:18:32.443Z,82.96
2023-02-28T01:21:02.210Z,82.90
2023-02-28T01:23:31.850Z,82.34
2023-02-28T01:26:01.598Z,83.40
2023-02-28T01:28:31.475Z,83.57
2023-02-28T01:31:01.398Z,84.97
2023-02-28T01:33:34.124Z,85.30
2023-02-28T01:36:04.167Z,85.34
2023-02-28T01:38:34.280Z,86.50
2023-02-28T01:41:04.169Z,85.66
2023-02-28T01:43:36.040Z,86.24
2023-02-28T01:46:05.815Z,86.67
2023-02-28T01:48:41.949Z,85.94
2023-02-28T01:51:16.791Z,86.75
2023-02-28T01:53:49.772Z,86.72
2023-02-28T01:56:24.129Z,86.64
2023-02-28T01:58:54.830Z,86.21
2023-02-28T02:01:29.865Z,86.03
2023-02-28T02:04:06.200Z,86.18
2023-02-28T02:06:42.033Z,85.89
2023-02-28T02:09:13.637Z,85.20
2023-02-28T02:11:45.939Z,85.14
2023-02-28T02:14:45.423Z,83.46
2023-02-28T02:17:25.215Z,84.11
2023-02-28T02:20:22.891Z,83.91
2023-02-28T02:23:13.301Z,83.88
2023-02-28T02:25:47.333Z,83.88
2023-02-28T02:28:48.221Z,82.97
2023-02-28T02:31:32.615Z,83.45
2023-02-28T02:34:31.980Z,83.18
2023-02-28T02:37:11.753Z,83.85
2023-02-28T02:39:49.362Z,83.76
2023-02-28T02:42:25.751Z,83.68
2023-02-28T02:45:02.003Z,83.68
2023-02-28T02:47:34.933Z,84.55
2023-02-28T02:50:12.561Z,84.60
2023-02-28T02:52:47.159Z,85.27
2023-02-28T02:55:18.571Z,85.52
2023-02-28T02:57:52.505Z,85.59
2023-02-28T03:00:27.349Z,85.83
2023-02-28T03:02:59.792Z,85.05
2023-02-28T03:05:37.953Z,86.16
2023-02-28T03:08:08.149Z,86.50
2023-02-28T03:10:40.683Z,85.83
2023-02-28T03:13:46.489Z,84.65
2023-02-28T03:16:32.453Z,84.41
2023-02-28T03:19:10.714Z,84.52
2023-02-28T03:21:48.025Z,84.20
2023-02-28T03:24:26.330Z,84.45
2023-02-28T03:27:02.596Z,85.12
2023-02-28T03:29:38.648Z,85.53
2023-02-28T03:32:18.414Z,85.59
2023-02-28T03:34:54.690Z,86.54
2023-02-28T03:37:30.762Z,87.01
2023-02-28T03:40:07.439Z,87.25
2023-02-28T03:42:40.517Z,86.64
2023-02-28T03:45:17.264Z,86.05
2023-02-28T03:47:53.088Z,86.19
2023-02-28T03:50:26.673Z,86.97
2023-02-28T03:53:05.962Z,87.11
2023-02-28T03:55:42.286Z,86.47
2023-02-28T03:58:19.654Z,85.71
2023-02-28T04:00:53.133Z,85.51
2023-02-28T04:03:22.785Z,84.33
2023-02-28T04:05:55.789Z,84.46
2023-02-28T04:08:28.099Z,84.49
2023-02-28T04:11:04.449Z,84.54
2023-02-28T04:13:34.159Z,84.08
2023-02-28T04:16:18.719Z,84.38
2023-02-28T04:18:51.377Z,83.59
2023-02-28T04:21:23.297Z,83.30
2023-02-28T04:23:55.550Z,83.03
2023-02-28T04:26:25.312Z,82.99
2023-02-28T04:28:54.979Z,82.96
2023-02-28T04:31:24.726Z,83.90
2023-02-28T04:33:54.496Z,84.16
2023-02-28T04:36:24.359Z,84.47
2023-02-28T04:38:56.844Z,85.78
2023-02-28T04:41:28.932Z,86.17
2023-02-28T04:43:59.923Z,86.44
2023-02-28T04:46:29.538Z,86.35
2023-02-28T04:48:59.225Z,85.00
2023-02-28T04:51:29.120Z,84.71
2023-02-28T04:54:01.730Z,84.28
2023-02-28T04:56:31.371Z,84.57
2023-02-28T04:59:01.288Z,83.96
2023-02-28T05:01:33.558Z,83.46
2023-02-28T05:04:05.621Z,83.03
2023-02-28T05:06:36.981Z,82.99
2023-02-28T05:09:09.363Z,82.77
2023-02-28T05:11:40.169Z,82.56
2023-02-28T05:14:15.059Z,81.85
2023-02-28T05:16:45.369Z,81.39
2023-02-28T05:19:15.079Z,81.67
2023-02-28T05:21:52.114Z,81.21
2023-02-28T05:24:26.370Z,80.88
2023-02-28T05:26:57.417Z,81.22
2023-02-28T05:29:27.120Z,80.92
2023-02-28T05:31:56.929Z,80.55
2023-02-28T05:34:26.725Z,80.41
2023-02-28T05:36:56.430Z,80.67
2023-02-28T05:39:28.709Z,80.58
2023-02-28T05:41:58.408Z,81.46
2023-02-28T05:44:28.374Z,81.23
2023-02-28T05:46:58.149Z,81.17
2023-02-28T05:49:27.926Z,81.58
2023-02-28T05:51:57.733Z,81.94
2023-02-28T05:54:30.022Z,82.17
2023-02-28T05:56:59.744Z,81.92
2023-02-28T05:59:29.459Z,82.40
2023-02-28T06:01:59.256Z,82.79
2023-02-28T06:04:32.142Z,82.43
2023-02-28T06:07:02.796Z,82.12
2023-02-28T06:09:35.116Z,81.35
2023-02-28T06:12:08.234Z,81.55
2023-02-28T06:14:38.532Z,82.49
2023-02-28T06:17:08.277Z,83.20
2023-02-28T06:19:39.764Z,82.91
2023-02-28T06:22:09.437Z,82.21
2023-02-28T06:24:41.673Z,81.25
2023-02-28T06:27:11.418Z,81.31
2023-02-28T06:29:44.035Z,80.42
2023-02-28T06:32:13.767Z,80.30
2023-02-28T06:34:43.544Z,79.99
2023-02-28T06:37:13.161Z,79.54
2023-02-28T06:39:45.615Z,79.93
2023-02-28T06:42:15.346Z,80.15
2023-02-28T06:44:45.033Z,80.87
2023-02-28T06:47:14.757Z,81.27
2023-02-28T06:49:46.228Z,81.46
2023-02-28T06:52:16.020Z,82.41
2023-02-28T06:54:48.319Z,82.76
2023-02-28T06:57:18.077Z,83.36
2023-02-28T06:59:47.703Z,83.76
2023-02-28T07:02:17.317Z,84.13
2023-02-28T07:04:47.376Z,83.23
2023-02-28T07:07:17.034Z,82.38
2023-02-28T07:09:49.343Z,82.27
2023-02-28T07:12:19.146Z,82.56
2023-02-28T07:14:48.817Z,82.45
2023-02-28T07:17:18.548Z,83.31
2023-02-28T07:19:50.428Z,83.18
2023-02-28T07:22:20.141Z,82.58
2023-02-28T07:24:52.789Z,82.71
2023-02-28T07:27:27.249Z,82.65
2023-02-28T07:29:57.346Z,82.29
2023-02-28T07:32:27.187Z,82.09
2023-02-28T07:34:57.017Z,82.44
2023-02-28T07:37:26.661Z,82.62
2023-02-28T07:39:58.958Z,82.70
2023-02-28T07:42:28.661Z,82.94
2023-02-28T07:45:03.842Z,82.87
2023-02-28T07:47:34.311Z,82.89
2023-02-28T07:50:08.863Z,82.77
2023-02-28T07:52:39.628Z,83.19
2023-02-28T07:55:14.710Z,83.72
2023-02-28T07:57:44.764Z,84.16
2023-02-28T08:00:16.289Z,84.11
2023-02-28T08:02:46.115Z,83.71
2023-02-28T08:05:21.470Z,84.59
2023-02-28T08:07:54.399Z,84.71
2023-02-28T08:10:27.104Z,85.81
2023-02-28T08:12:56.829Z,86.06
2023-02-28T08:15:26.540Z,85.85
2023-02-28T08:17:57.302Z,86.27
2023-02-28T08:20:27.392Z,86.65
2023-02-28T08:22:57.242Z,86.68
2023-02-28T08:25:29.615Z,86.75
2023-02-28T08:27:59.435Z,87.06
2023-02-28T08:30:31.796Z,87.16
2023-02-28T08:33:02.863Z,86.61
2023-02-28T08:35:32.643Z,85.28
2023-02-28T08:38:02.364Z,83.19
2023-02-28T08:40:34.656Z,80.67
2023-02-28T08:43:04.398Z,81.03
2023-02-28T08:45:34.359Z,80.68
2023-02-28T08:48:04.090Z,80.51
2023-02-28T08:50:33.740Z,79.93
2023-02-28T08:53:03.593Z,79.95
2023-02-28T08:55:35.956Z,79.91
2023-02-28T08:58:05.656Z,79.71
2023-02-28T09:00:38.407Z,79.61
2023-02-28T09:03:10.670Z,79.75
2023-02-28T09:05:40.359Z,80.51
2023-02-28T09:08:10.117Z,80.34
2023-02-28T09:10:42.415Z,80.58
2023-02-28T09:13:12.100Z,80.30
2023-02-28T09:15:41.867Z,77.50
2023-02-28T09:18:11.802Z,76.84
2023-02-28T09:20:42.587Z,76.06
2023-02-28T09:23:13.145Z,76.35
2023-02-28T09:25:50.184Z,75.29
2023-02-28T09:28:20.116Z,73.71
2023-02-28T09:30:51.786Z,73.91
2023-02-28T09:33:22.744Z,74.13
2023-02-28T09:35:53.343Z,71.50
2023-02-28T09:38:23.119Z,72.39
2023-02-28T09:40:58.103Z,71.59
2023-02-28T09:43:30.737Z,71.49
2023-02-28T09:46:06.694Z,71.52
2023-02-28T09:48:41.325Z,71.61
2023-02-28T09:51:31.983Z,72.07
2023-02-28T09:54:02.475Z,73.45
2023-02-28T09:56:39.787Z,72.51
2023-02-28T09:59:17.875Z,72.06
2023-02-28T10:01:56.990Z,70.16
2023-02-28T10:04:42.691Z,69.66
2023-02-28T10:07:26.422Z,69.07
2023-02-28T10:10:01.478Z,69.75
2023-02-28T10:12:35.798Z,68.88
2023-02-28T10:15:07.694Z,69.60
2023-02-28T10:17:55.627Z,68.92
2023-02-28T10:20:35.814Z,68.96
2023-02-28T10:23:13.566Z,69.04
2023-02-28T10:25:50.596Z,67.61
2023-02-28T10:28:26.857Z,68.06
2023-02-28T10:31:01.430Z,67.56
2023-02-28T10:33:35.801Z,68.29
2023-02-28T10:36:12.669Z,68.45
2023-02-28T10:38:57.977Z,68.41
2023-02-28T10:41:39.436Z,67.05
2023-02-28T10:44:25.571Z,67.72
2023-02-28T10:46:55.702Z,67.61
2023-02-28T10:49:28.081Z,66.55
2023-02-28T10:52:00.045Z,66.88
2023-02-28T10:54:38.893Z,67.26
2023-02-28T10:57:18.839Z,66.94
2023-02-28T10:59:56.118Z,66.04
2023-02-28T11:02:35.290Z,66.22
2023-02-28T11:05:08.354Z,67.08
2023-02-28T11:08:16.666Z,65.90
2023-02-28T11:10:51.057Z,66.15
2023-02-28T11:13:23.991Z,65.27
2023-02-28T11:15:59.141Z,64.87
2023-02-28T11:18:33.153Z,65.12
2023-02-28T11:21:05.768Z,64.07
2023-02-28T11:23:40.840Z,63.38
2023-02-28T11:26:12.387Z,62.36
2023-02-28T11:28:44.229Z,62.70
2023-02-28T11:31:23.574Z,62.84
2023-02-28T11:33:56.814Z,63.67
2023-02-28T11:36:28.595Z,63.18
2023-02-28T11:39:02.691Z,62.51
2023-02-28T11:41:46.760Z,60.54
2023-02-28T11:44:28.716Z,60.17
2023-02-28T11:47:07.898Z,60.35
2023-02-28T11:49:47.823Z,60.21
2023-02-28T11:52:25.050Z,60.61
2023-02-28T11:55:12.588Z,60.55
2023-02-28T11:58:12.263Z,60.17
2023-02-28T12:00:51.423Z,60.27
2023-02-28T12:03:52.981Z,59.33
2023-02-28T12:06:30.723Z,58.31
2023-02-28T12:09:08.283Z,57.32
2023-02-28T12:11:49.377Z,59.73
2023-02-28T12:14:33.409Z,57.48
2023-02-28T12:17:09.326Z,57.51
2023-02-28T12:19:52.448Z,57.97
2023-02-28T12:22:43.306Z,58.05
2023-02-28T12:25:44.617Z,53.75
2023-02-28T12:28:18.280Z,54.62
2023-02-28T12:30:56.929Z,55.88
2023-02-28T12:33:31.953Z,54.72
2023-02-28T12:36:12.140Z,53.82
2023-02-28T12:38:47.819Z,53.96
2023-02-28T12:41:23.089Z,53.92
2023-02-28T12:43:59.953Z,53.12
2023-02-28T12:46:36.487Z,53.77
2023-02-28T22:07:02.800Z,79.47
